Terminal Aerodrome Forecast
Issued by NWS St Louis, MO

Home | Current Version | Previous Version | Text Only | Print | Product List | Glossary On
Versions: 1 2 3 4 5 6 7 8 9 10 11 12 13 14
000
FTUS43 KLSX 012300
TAFCOU
TAF
KCOU 012340Z 0200/0224 18018G28KT P6SM -SHRA SCT030 OVC060
      TEMPO 0200/0201 3SM TSRA BKN030CB
     FM020300 17013KT P6SM BKN050 WS018/18040KT
     FM021200 22012G20KT 4SM -TSRA OVC022CB
     FM021400 24012KT 6SM -SHRA OVC030
     FM022100 33008KT P6SM BKN030=

USA.gov is the U.S. government's official web portal to all federal, state and local government web resources and services.